sensor_id;sensor_type;location;lat;lon;timestamp;pressure;altitude;pressure_sealevel;temperature;humidity
75681;BME280;64294;49.176;16.626;2022-11-20T00:01:42;98978.03;;;-1.68;91.03
75681;BME280;64294;49.176;16.626;2022-11-20T00:04:08;98972.53;;;-1.68;90.64
75681;BME280;64294;49.176;16.626;2022-11-20T00:06:33;98965.69;;;-1.82;91.62
75681;BME280;64294;49.176;16.626;2022-11-20T00:08:59;98967.06;;;-1.87;91.38
75681;BME280;64294;49.176;16.626;2022-11-20T00:11:27;98973.19;;;-1.92;91.58
75681;BME280;64294;49.176;16.626;2022-11-20T00:13:56;98969.38;;;-1.94;91.68
75681;BME280;64294;49.176;16.626;2022-11-20T00:16:24;98975.47;;;-1.90;91.83
75681;BME280;64294;49.176;16.626;2022-11-20T00:18:50;98955.56;;;-1.76;91.32
75681;BME280;64294;49.176;16.626;2022-11-20T00:21:21;98950.97;;;-1.79;90.71
75681;BME280;64294;49.176;16.626;2022-11-20T00:23:47;98951.63;;;-1.84;91.09
75681;BME280;64294;49.176;16.626;2022-11-20T00:26:16;98943.94;;;-1.80;91.18
75681;BME280;64294;49.176;16.626;2022-11-20T00:28:43;98939.38;;;-1.83;91.33
75681;BME280;64294;49.176;16.626;2022-11-20T00:31:13;98928.19;;;-1.79;91.65
75681;BME280;64294;49.176;16.626;2022-11-20T00:33:39;98934.47;;;-1.79;91.15
75681;BME280;64294;49.176;16.626;2022-11-20T00:36:07;98932.16;;;-1.80;90.96
75681;BME280;64294;49.176;16.626;2022-11-20T00:38:34;98937.38;;;-1.92;91.30
75681;BME280;64294;49.176;16.626;2022-11-20T00:41:01;98937.56;;;-2.04;91.75
75681;BME280;64294;49.176;16.626;2022-11-20T00:43:27;98954.69;;;-2.09;92.22
75681;BME280;64294;49.176;16.626;2022-11-20T00:45:57;98946.59;;;-2.22;91.89
75681;BME280;64294;49.176;16.626;2022-11-20T00:48:23;98943.06;;;-2.32;92.21
75681;BME280;64294;49.176;16.626;2022-11-20T00:50:48;98939.25;;;-2.44;92.61
75681;BME280;64294;49.176;16.626;2022-11-20T00:53:14;98937.25;;;-2.52;92.72
75681;BME280;64294;49.176;16.626;2022-11-20T00:55:39;98921.81;;;-2.68;93.21
75681;BME280;64294;49.176;16.626;2022-11-20T00:58:04;98929.31;;;-2.78;94.22
75681;BME280;64294;49.176;16.626;2022-11-20T01:00:30;98925.28;;;-2.86;94.93
75681;BME280;64294;49.176;16.626;2022-11-20T01:02:55;98929.88;;;-2.92;94.77
75681;BME280;64294;49.176;16.626;2022-11-20T01:05:24;98929.72;;;-2.88;94.40
75681;BME280;64294;49.176;16.626;2022-11-20T01:07:49;98934.31;;;-2.85;93.87
75681;BME280;64294;49.176;16.626;2022-11-20T01:10:14;98925.44;;;-2.89;94.27
75681;BME280;64294;49.176;16.626;2022-11-20T01:12:40;98934.75;;;-2.87;94.66
75681;BME280;64294;49.176;16.626;2022-11-20T01:15:06;98930.50;;;-2.88;94.40
75681;BME280;64294;49.176;16.626;2022-11-20T01:17:31;98930.78;;;-2.86;94.74
75681;BME280;64294;49.176;16.626;2022-11-20T01:19:57;98931.09;;;-2.84;95.23
75681;BME280;64294;49.176;16.626;2022-11-20T01:22:22;98937.06;;;-2.85;95.16
75681;BME280;64294;49.176;16.626;2022-11-20T01:24:48;98933.28;;;-2.79;95.78
75681;BME280;64294;49.176;16.626;2022-11-20T01:27:13;98935.56;;;-2.77;95.78
75681;BME280;64294;49.176;16.626;2022-11-20T01:29:38;98926.38;;;-2.74;95.47
75681;BME280;64294;49.176;16.626;2022-11-20T01:32:04;98925.94;;;-2.72;95.58
75681;BME280;64294;49.176;16.626;2022-11-20T01:34:29;98935.25;;;-2.70;95.40
75681;BME280;64294;49.176;16.626;2022-11-20T01:36:55;98927.16;;;-2.73;95.37
75681;BME280;64294;49.176;16.626;2022-11-20T01:39:25;98924.25;;;-2.70;95.58
75681;BME280;64294;49.176;16.626;2022-11-20T01:41:52;98934.19;;;-2.63;95.53
75681;BME280;64294;49.176;16.626;2022-11-20T01:47:27;98950.72;;;-2.54;96.18
75681;BME280;64294;49.176;16.626;2022-11-20T01:52:46;98949.03;;;-2.42;95.70
75681;BME280;64294;49.176;16.626;2022-11-20T01:55:19;98961.28;;;-2.34;94.98
75681;BME280;64294;49.176;16.626;2022-11-20T01:57:45;98959.44;;;-2.28;94.96
75681;BME280;64294;49.176;16.626;2022-11-20T02:00:13;98947.50;;;-2.25;95.13
75681;BME280;64294;49.176;16.626;2022-11-20T02:02:41;98951.94;;;-2.19;94.97
75681;BME280;64294;49.176;16.626;2022-11-20T02:05:28;98957.47;;;-2.19;94.93
75681;BME280;64294;49.176;16.626;2022-11-20T02:07:59;98949.50;;;-2.17;94.90
75681;BME280;64294;49.176;16.626;2022-11-20T02:10:26;98946.13;;;-2.11;94.78
75681;BME280;64294;49.176;16.626;2022-11-20T02:12:52;98944.28;;;-2.05;93.68
75681;BME280;64294;49.176;16.626;2022-11-20T02:15:36;98938.16;;;-2.00;93.88
75681;BME280;64294;49.176;16.626;2022-11-20T02:18:02;98941.69;;;-2.09;94.00
75681;BME280;64294;49.176;16.626;2022-11-20T02:20:28;98934.66;;;-2.10;94.11
75681;BME280;64294;49.176;16.626;2022-11-20T02:22:57;98942.63;;;-2.03;93.62
75681;BME280;64294;49.176;16.626;2022-11-20T02:25:26;98957.16;;;-2.02;93.52
75681;BME280;64294;49.176;16.626;2022-11-20T02:27:52;98958.38;;;-2.03;93.39
75681;BME280;64294;49.176;16.626;2022-11-20T02:30:18;98959.44;;;-2.01;93.75
75681;BME280;64294;49.176;16.626;2022-11-20T02:32:43;98965.69;;;-2.09;92.65
75681;BME280;64294;49.176;16.626;2022-11-20T02:37:56;98975.19;;;-2.01;92.47
75681;BME280;64294;49.176;16.626;2022-11-20T02:40:22;98981.28;;;-2.06;92.15
75681;BME280;64294;49.176;16.626;2022-11-20T02:42:51;98969.69;;;-2.01;92.61
75681;BME280;64294;49.176;16.626;2022-11-20T02:45:17;98970.16;;;-2.03;92.38
75681;BME280;64294;49.176;16.626;2022-11-20T02:47:42;98971.22;;;-2.00;92.67
75681;BME280;64294;49.176;16.626;2022-11-20T02:50:07;98968.44;;;-1.91;92.71
75681;BME280;64294;49.176;16.626;2022-11-20T02:52:33;98960.19;;;-1.91;92.29
75681;BME280;64294;49.176;16.626;2022-11-20T02:54:58;98950.41;;;-2.01;92.56
75681;BME280;64294;49.176;16.626;2022-11-20T02:57:23;98950.88;;;-2.03;92.62
75681;BME280;64294;49.176;16.626;2022-11-20T02:59:49;98943.69;;;-2.09;91.78
75681;BME280;64294;49.176;16.626;2022-11-20T03:02:14;98950.72;;;-2.08;91.73
75681;BME280;64294;49.176;16.626;2022-11-20T03:04:40;98963.72;;;-2.00;91.49
75681;BME280;64294;49.176;16.626;2022-11-20T03:07:08;98967.25;;;-1.99;91.43
75681;BME280;64294;49.176;16.626;2022-11-20T03:09:34;98968.16;;;-2.02;91.67
75681;BME280;64294;49.176;16.626;2022-11-20T03:12:00;98959.91;;;-2.02;91.90
75681;BME280;64294;49.176;16.626;2022-11-20T03:14:25;98962.34;;;-2.04;92.19
75681;BME280;64294;49.176;16.626;2022-11-20T03:16:50;98967.06;;;-1.96;92.41
75681;BME280;64294;49.176;16.626;2022-11-20T03:19:16;98971.81;;;-1.96;92.56
75681;BME280;64294;49.176;16.626;2022-11-20T03:21:41;98973.66;;;-1.93;91.50
75681;BME280;64294;49.176;16.626;2022-11-20T03:24:07;98975.19;;;-1.92;91.58
75681;BME280;64294;49.176;16.626;2022-11-20T03:26:32;98972.13;;;-1.94;91.63
75681;BME280;64294;49.176;16.626;2022-11-20T03:29:00;98972.72;;;-1.90;91.33
75681;BME280;64294;49.176;16.626;2022-11-20T03:31:28;98977.31;;;-1.87;91.27
75681;BME280;64294;49.176;16.626;2022-11-20T03:33:56;98960.78;;;-1.87;90.76
75681;BME280;64294;49.176;16.626;2022-11-20T03:36:24;98969.38;;;-1.85;91.36
75681;BME280;64294;49.176;16.626;2022-11-20T03:38:50;98960.78;;;-1.87;91.56
75681;BME280;64294;49.176;16.626;2022-11-20T03:41:18;98969.38;;;-1.85;91.82
75681;BME280;64294;49.176;16.626;2022-11-20T03:43:52;98971.03;;;-1.88;91.63
75681;BME280;64294;49.176;16.626;2022-11-20T03:46:18;98968.59;;;-1.86;91.94
75681;BME280;64294;49.176;16.626;2022-11-20T03:48:43;98959.53;;;-1.77;91.75
75681;BME280;64294;49.176;16.626;2022-11-20T03:51:17;98950.97;;;-1.79;91.55
75681;BME280;64294;49.176;16.626;2022-11-20T03:53:45;98954.50;;;-1.78;91.87
75681;BME280;64294;49.176;16.626;2022-11-20T03:56:12;98947.00;;;-1.78;92.55
75681;BME280;64294;49.176;16.626;2022-11-20T03:58:40;98947.63;;;-1.83;92.90
75681;BME280;64294;49.176;16.626;2022-11-20T04:01:14;98948.53;;;-1.86;93.47
75681;BME280;64294;49.176;16.626;2022-11-20T04:03:41;98948.53;;;-1.86;94.27
75681;BME280;64294;49.176;16.626;2022-11-20T04:06:09;98953.28;;;-1.87;94.50
75681;BME280;64294;49.176;16.626;2022-11-20T04:08:35;98949.00;;;-1.88;94.88
75681;BME280;64294;49.176;16.626;2022-11-20T04:13:38;98966.16;;;-1.93;95.28
75681;BME280;64294;49.176;16.626;2022-11-20T04:16:05;98955.13;;;-1.84;94.59
75681;BME280;64294;49.176;16.626;2022-11-20T04:18:31;98942.88;;;-1.92;94.41
75681;BME280;64294;49.176;16.626;2022-11-20T04:20:59;98937.09;;;-1.94;95.28
75681;BME280;64294;49.176;16.626;2022-11-20T04:23:25;98932.03;;;-1.95;95.62
75681;BME280;64294;49.176;16.626;2022-11-20T04:25:50;98926.19;;;-1.88;95.38
75681;BME280;64294;49.176;16.626;2022-11-20T04:28:16;98928.69;;;-1.99;95.29
75681;BME280;64294;49.176;16.626;2022-11-20T04:30:41;98940.63;;;-2.02;95.60
75681;BME280;64294;49.176;16.626;2022-11-20T04:33:06;98940.00;;;-2.06;95.58
75681;BME280;64294;49.176;16.626;2022-11-20T04:35:38;98938.78;;;-2.15;95.93
75681;BME280;64294;49.176;16.626;2022-11-20T04:38:04;98937.72;;;-2.17;96.18
75681;BME280;64294;49.176;16.626;2022-11-20T04:40:30;98933.75;;;-2.16;96.16
75681;BME280;64294;49.176;16.626;2022-11-20T04:42:55;98927.44;;;-2.07;95.74
75681;BME280;64294;49.176;16.626;2022-11-20T04:45:22;98937.69;;;-2.08;96.04
75681;BME280;64294;49.176;16.626;2022-11-20T04:47:48;98943.06;;;-2.14;96.41
75681;BME280;64294;49.176;16.626;2022-11-20T04:50:13;98944.91;;;-2.10;95.64
75681;BME280;64294;49.176;16.626;2022-11-20T04:52:39;98927.47;;;-2.17;95.04
75681;BME280;64294;49.176;16.626;2022-11-20T04:55:04;98907.75;;;-2.15;94.72
75681;BME280;64294;49.176;16.626;2022-11-20T04:57:30;98905.75;;;-2.15;95.24
75681;BME280;64294;49.176;16.626;2022-11-20T04:59:55;98919.50;;;-2.05;94.74
75681;BME280;64294;49.176;16.626;2022-11-20T05:02:20;98911.41;;;-2.09;94.74
75681;BME280;64294;49.176;16.626;2022-11-20T05:04:46;98911.09;;;-2.02;94.82
75681;BME280;64294;49.176;16.626;2022-11-20T05:07:11;98902.06;;;-2.02;94.16
75681;BME280;64294;49.176;16.626;2022-11-20T05:09:37;98910.34;;;-2.02;94.59
75681;BME280;64294;49.176;16.626;2022-11-20T05:12:02;98903.44;;;-2.07;94.85
75681;BME280;64294;49.176;16.626;2022-11-20T05:14:27;98899.03;;;-2.04;94.89
75681;BME280;64294;49.176;16.626;2022-11-20T05:16:53;98889.06;;;-2.02;94.83
75681;BME280;64294;49.176;16.626;2022-11-20T05:19:18;98903.13;;;-2.00;95.08
75681;BME280;64294;49.176;16.626;2022-11-20T05:21:43;98891.94;;;-1.96;94.27
75681;BME280;64294;49.176;16.626;2022-11-20T05:24:09;98902.22;;;-1.97;94.54
75681;BME280;64294;49.176;16.626;2022-11-20T05:26:34;98898.34;;;-1.90;94.63
75681;BME280;64294;49.176;16.626;2022-11-20T05:29:00;98898.06;;;-1.92;94.42
75681;BME280;64294;49.176;16.626;2022-11-20T05:31:26;98898.81;;;-1.92;94.38
75681;BME280;64294;49.176;16.626;2022-11-20T05:33:51;98901.09;;;-1.90;94.58
75681;BME280;64294;49.176;16.626;2022-11-20T05:36:17;98905.38;;;-1.89;94.45
75681;BME280;64294;49.176;16.626;2022-11-20T05:38:43;98895.28;;;-1.83;94.60
75681;BME280;64294;49.176;16.626;2022-11-20T05:41:14;98894.66;;;-1.78;94.48
75681;BME280;64294;49.176;16.626;2022-11-20T05:43:41;98898.94;;;-1.77;95.43
75681;BME280;64294;49.176;16.626;2022-11-20T05:46:09;98896.19;;;-1.77;95.54
75681;BME280;64294;49.176;16.626;2022-11-20T05:48:35;98893.44;;;-1.77;94.96
75681;BME280;64294;49.176;16.626;2022-11-20T05:51:05;98888.53;;;-1.73;94.99
75681;BME280;64294;49.176;16.626;2022-11-20T05:53:32;98874.28;;;-1.71;95.22
75681;BME280;64294;49.176;16.626;2022-11-20T05:56:05;98870.28;;;-1.70;94.82
75681;BME280;64294;49.176;16.626;2022-11-20T05:58:32;98862.31;;;-1.68;94.91
75681;BME280;64294;49.176;16.626;2022-11-20T06:01:10;98866.31;;;-1.69;95.15
75681;BME280;64294;49.176;16.626;2022-11-20T06:03:36;98851.31;;;-1.68;95.10
75681;BME280;64294;49.176;16.626;2022-11-20T06:06:03;98863.09;;;-1.68;95.57
75681;BME280;64294;49.176;16.626;2022-11-20T06:08:29;98849.31;;;-1.68;95.42
75681;BME280;64294;49.176;16.626;2022-11-20T06:10:54;98861.56;;;-1.69;95.63
75681;BME280;64294;49.176;16.626;2022-11-20T06:13:20;98845.19;;;-1.72;95.66
75681;BME280;64294;49.176;16.626;2022-11-20T06:15:50;98857.91;;;-1.75;95.13
75681;BME280;64294;49.176;16.626;2022-11-20T06:18:16;98878.72;;;-1.74;95.25
75681;BME280;64294;49.176;16.626;2022-11-20T06:20:41;98877.50;;;-1.73;94.46
75681;BME280;64294;49.176;16.626;2022-11-20T06:23:06;98885.59;;;-1.69;94.04
75681;BME280;64294;49.176;16.626;2022-11-20T06:25:32;98893.09;;;-1.70;93.73
75681;BME280;64294;49.176;16.626;2022-11-20T06:27:57;98891.09;;;-1.69;93.97
75681;BME280;64294;49.176;16.626;2022-11-20T06:30:22;98874.91;;;-1.67;94.33
75681;BME280;64294;49.176;16.626;2022-11-20T06:32:48;98881.25;;;-1.52;93.49
75681;BME280;64294;49.176;16.626;2022-11-20T06:35:13;98881.13;;;-1.58;94.16
75681;BME280;64294;49.176;16.626;2022-11-20T06:37:38;98879.88;;;-1.57;93.82
75681;BME280;64294;49.176;16.626;2022-11-20T06:40:04;98879.88;;;-1.57;93.97
75681;BME280;64294;49.176;16.626;2022-11-20T06:42:30;98886.75;;;-1.52;94.08
75681;BME280;64294;49.176;16.626;2022-11-20T06:44:55;98899.78;;;-1.53;93.26
75681;BME280;64294;49.176;16.626;2022-11-20T06:47:20;98894.25;;;-1.53;93.24
75681;BME280;64294;49.176;16.626;2022-11-20T06:49:46;98904.69;;;-1.47;93.27
75681;BME280;64294;49.176;16.626;2022-11-20T06:52:11;98911.53;;;-1.43;92.95
75681;BME280;64294;49.176;16.626;2022-11-20T06:54:36;98911.38;;;-1.39;92.76
75681;BME280;64294;49.176;16.626;2022-11-20T06:57:02;98913.19;;;-1.36;93.07
75681;BME280;64294;49.176;16.626;2022-11-20T06:59:27;98919.28;;;-1.32;91.99
75681;BME280;64294;49.176;16.626;2022-11-20T07:01:52;98929.69;;;-1.27;91.86
75681;BME280;64294;49.176;16.626;2022-11-20T07:04:18;98934.69;;;-1.16;91.75
75681;BME280;64294;49.176;16.626;2022-11-20T07:06:43;98933.28;;;-1.12;91.13
75681;BME280;64294;49.176;16.626;2022-11-20T07:09:09;98920.41;;;-1.06;90.79
75681;BME280;64294;49.176;16.626;2022-11-20T07:11:34;98927.75;;;-1.03;90.58
75681;BME280;64294;49.176;16.626;2022-11-20T07:13:59;98932.56;;;-0.88;90.25
75681;BME280;64294;49.176;16.626;2022-11-20T07:16:25;98925.06;;;-0.88;90.04
75681;BME280;64294;49.176;16.626;2022-11-20T07:18:50;98930.97;;;-0.80;89.81
75681;BME280;64294;49.176;16.626;2022-11-20T07:21:15;98920.41;;;-0.58;88.72
75681;BME280;64294;49.176;16.626;2022-11-20T07:23:41;98908.16;;;-0.42;87.17
75681;BME280;64294;49.176;16.626;2022-11-20T07:26:08;98900.94;;;-0.40;86.35
75681;BME280;64294;49.176;16.626;2022-11-20T07:28:34;98902.16;;;-0.41;85.96
75681;BME280;64294;49.176;16.626;2022-11-20T07:31:00;98891.72;;;-0.22;86.20
75681;BME280;64294;49.176;16.626;2022-11-20T07:33:25;98893.47;;;-0.10;85.07
75681;BME280;64294;49.176;16.626;2022-11-20T07:35:51;98881.94;;;0.36;83.73
75681;BME280;64294;49.176;16.626;2022-11-20T07:38:16;98898.50;;;1.41;81.46
75681;BME280;64294;49.176;16.626;2022-11-20T07:40:42;98899.81;;;3.89;70.67
75681;BME280;64294;49.176;16.626;2022-11-20T07:43:07;98897.56;;;6.86;60.32
75681;BME280;64294;49.176;16.626;2022-11-20T07:45:33;98891.91;;;8.86;50.65
75681;BME280;64294;49.176;16.626;2022-11-20T07:47:58;98902.09;;;10.70;44.76
75681;BME280;64294;49.176;16.626;2022-11-20T07:50:24;98912.97;;;12.16;39.91
75681;BME280;64294;49.176;16.626;2022-11-20T07:52:49;98910.75;;;13.75;36.83
75681;BME280;64294;49.176;16.626;2022-11-20T07:55:14;98911.00;;;13.54;37.24
75681;BME280;64294;49.176;16.626;2022-11-20T07:57:40;98909.09;;;14.12;34.30
75681;BME280;64294;49.176;16.626;2022-11-20T08:00:07;98912.59;;;14.68;33.34
75681;BME280;64294;49.176;16.626;2022-11-20T08:02:40;98925.69;;;14.56;33.63
75681;BME280;64294;49.176;16.626;2022-11-20T08:05:07;98924.97;;;13.06;38.01
75681;BME280;64294;49.176;16.626;2022-11-20T08:07:37;98925.03;;;10.06;43.02
75681;BME280;64294;49.176;16.626;2022-11-20T08:10:03;98930.19;;;7.51;48.38
75681;BME280;64294;49.176;16.626;2022-11-20T08:12:28;98932.63;;;6.57;50.68
75681;BME280;64294;49.176;16.626;2022-11-20T08:15:12;98917.44;;;5.59;54.35
75681;BME280;64294;49.176;16.626;2022-11-20T08:17:37;98918.88;;;4.35;57.86
75681;BME280;64294;49.176;16.626;2022-11-20T08:20:03;98920.03;;;3.24;62.29
75681;BME280;64294;49.176;16.626;2022-11-20T08:22:29;98926.88;;;2.86;64.08
75681;BME280;64294;49.176;16.626;2022-11-20T08:24:54;98931.75;;;2.65;66.48
75681;BME280;64294;49.176;16.626;2022-11-20T08:27:19;98941.50;;;2.24;67.21
75681;BME280;64294;49.176;16.626;2022-11-20T08:29:45;98936.16;;;1.74;68.75
75681;BME280;64294;49.176;16.626;2022-11-20T08:32:10;98936.03;;;1.63;69.22
75681;BME280;64294;49.176;16.626;2022-11-20T08:34:35;98934.94;;;1.55;70.21
75681;BME280;64294;49.176;16.626;2022-11-20T08:37:02;98929.75;;;1.07;73.34
75681;BME280;64294;49.176;16.626;2022-11-20T08:39:27;98934.94;;;0.99;73.20
75681;BME280;64294;49.176;16.626;2022-11-20T08:41:53;98934.47;;;1.01;73.88
75681;BME280;64294;49.176;16.626;2022-11-20T08:44:18;98926.47;;;1.23;73.98
75681;BME280;64294;49.176;16.626;2022-11-20T08:46:43;98937.09;;;1.10;74.20
75681;BME280;64294;49.176;16.626;2022-11-20T08:49:12;98934.88;;;0.94;74.04
75681;BME280;64294;49.176;16.626;2022-11-20T08:51:38;98937.50;;;1.03;73.63
75681;BME280;64294;49.176;16.626;2022-11-20T08:54:04;98929.72;;;0.86;74.04
75681;BME280;64294;49.176;16.626;2022-11-20T08:56:30;98935.25;;;0.86;76.63
75681;BME280;64294;49.176;16.626;2022-11-20T08:58:56;98929.88;;;0.63;76.44
75681;BME280;64294;49.176;16.626;2022-11-20T09:01:22;98944.34;;;0.72;77.00
75681;BME280;64294;49.176;16.626;2022-11-20T09:03:48;98952.47;;;0.61;77.35
75681;BME280;64294;49.176;16.626;2022-11-20T09:06:14;98951.59;;;0.70;76.23
75681;BME280;64294;49.176;16.626;2022-11-20T09:08:40;98941.63;;;0.43;76.69
75681;BME280;64294;49.176;16.626;2022-11-20T09:11:06;98935.22;;;0.37;77.54
75681;BME280;64294;49.176;16.626;2022-11-20T09:13:33;98933.31;;;0.43;78.73
75681;BME280;64294;49.176;16.626;2022-11-20T09:16:01;98934.16;;;0.49;81.30
75681;BME280;64294;49.176;16.626;2022-11-20T09:18:27;98925.56;;;0.62;81.38
75681;BME280;64294;49.176;16.626;2022-11-20T09:21:00;98932.06;;;0.44;81.33
75681;BME280;64294;49.176;16.626;2022-11-20T09:23:26;98938.16;;;0.63;80.65
75681;BME280;64294;49.176;16.626;2022-11-20T09:25:52;98936.16;;;0.48;81.59
75681;BME280;64294;49.176;16.626;2022-11-20T09:28:20;98933.22;;;0.37;80.29
75681;BME280;64294;49.176;16.626;2022-11-20T09:30:45;98930.72;;;0.54;80.21
75681;BME280;64294;49.176;16.626;2022-11-20T09:33:11;98939.69;;;0.64;79.75
75681;BME280;64294;49.176;16.626;2022-11-20T09:35:36;98912.81;;;0.49;80.67
75681;BME280;64294;49.176;16.626;2022-11-20T09:38:08;98915.63;;;0.70;81.06
75681;BME280;64294;49.176;16.626;2022-11-20T09:40:36;98924.19;;;0.86;80.33
75681;BME280;64294;49.176;16.626;2022-11-20T09:51:21;98929.56;;;0.75;81.64
75681;BME280;64294;49.176;16.626;2022-11-20T09:56:22;98914.28;;;1.15;79.42
75681;BME280;64294;49.176;16.626;2022-11-20T09:58:52;98912.44;;;0.91;79.05
75681;BME280;64294;49.176;16.626;2022-11-20T10:01:26;98911.91;;;1.08;78.56
75681;BME280;64294;49.176;16.626;2022-11-20T10:04:06;98899.31;;;1.07;78.36
75681;BME280;64294;49.176;16.626;2022-11-20T10:06:47;98903.63;;;1.28;78.55
75681;BME280;64294;49.176;16.626;2022-11-20T10:11:56;98908.13;;;1.26;78.75
75681;BME280;64294;49.176;16.626;2022-11-20T10:14:31;98900.56;;;1.06;78.16
75681;BME280;64294;49.176;16.626;2022-11-20T10:27:44;98890.72;;;1.66;76.18
75681;BME280;64294;49.176;16.626;2022-11-20T10:30:17;98888.94;;;1.63;75.05
75681;BME280;64294;49.176;16.626;2022-11-20T10:32:46;98884.59;;;1.56;75.62
75681;BME280;64294;49.176;16.626;2022-11-20T10:35:26;98883.47;;;1.48;76.32
75681;BME280;64294;49.176;16.626;2022-11-20T10:38:00;98882.72;;;1.47;76.09
75681;BME280;64294;49.176;16.626;2022-11-20T10:40:35;98879.41;;;1.23;76.36
75681;BME280;64294;49.176;16.626;2022-11-20T10:43:10;98892.69;;;1.19;76.36
75681;BME280;64294;49.176;16.626;2022-11-20T10:48:27;98861.81;;;1.26;76.96
75681;BME280;64294;49.176;16.626;2022-11-20T10:51:03;98858.47;;;2.15;73.47
75681;BME280;64294;49.176;16.626;2022-11-20T10:56:40;98867.59;;;2.21;72.82
75681;BME280;64294;49.176;16.626;2022-11-20T11:02:00;98869.06;;;2.16;73.06
75681;BME280;64294;49.176;16.626;2022-11-20T11:04:32;98870.34;;;1.89;74.45
75681;BME280;64294;49.176;16.626;2022-11-20T11:07:16;98880.84;;;2.05;74.16
75681;BME280;64294;49.176;16.626;2022-11-20T11:09:47;98873.75;;;1.78;75.19
75681;BME280;64294;49.176;16.626;2022-11-20T11:12:13;98860.75;;;1.64;75.14
75681;BME280;64294;49.176;16.626;2022-11-20T11:14:57;98868.56;;;1.86;74.80
75681;BME280;64294;49.176;16.626;2022-11-20T11:17:30;98868.09;;;1.93;73.33
75681;BME280;64294;49.176;16.626;2022-11-20T11:20:01;98859.00;;;1.87;73.04
75681;BME280;64294;49.176;16.626;2022-11-20T11:22:29;98855.22;;;1.90;73.67
75681;BME280;64294;49.176;16.626;2022-11-20T11:24:55;98871.41;;;1.71;73.95
75681;BME280;64294;49.176;16.626;2022-11-20T11:27:21;98865.22;;;1.82;74.16
75681;BME280;64294;49.176;16.626;2022-11-20T11:29:46;98869.06;;;1.64;75.54
75681;BME280;64294;49.176;16.626;2022-11-20T11:32:18;98868.69;;;1.51;76.16
75681;BME280;64294;49.176;16.626;2022-11-20T11:34:44;98867.16;;;1.30;76.06
75681;BME280;64294;49.176;16.626;2022-11-20T11:37:18;98874.91;;;1.26;76.92
75681;BME280;64294;49.176;16.626;2022-11-20T11:39:46;98869.16;;;1.09;77.71
75681;BME280;64294;49.176;16.626;2022-11-20T11:42:17;98851.19;;;1.19;78.60
75681;BME280;64294;49.176;16.626;2022-11-20T11:44:47;98848.97;;;1.03;78.47
75681;BME280;64294;49.176;16.626;2022-11-20T11:50:13;98839.25;;;0.93;79.04
75681;BME280;64294;49.176;16.626;2022-11-20T12:04:10;98841.81;;;0.76;81.18
75681;BME280;64294;49.176;16.626;2022-11-20T12:06:42;98837.28;;;0.58;80.84
75681;BME280;64294;49.176;16.626;2022-11-20T12:09:10;98841.47;;;0.53;80.46
75681;BME280;64294;49.176;16.626;2022-11-20T12:11:46;98830.47;;;0.39;82.30
75681;BME280;64294;49.176;16.626;2022-11-20T12:16:45;98834.53;;;0.58;81.27
75681;BME280;64294;49.176;16.626;2022-11-20T12:19:12;98828.81;;;0.47;81.47
75681;BME280;64294;49.176;16.626;2022-11-20T12:22:00;98819.91;;;0.22;82.70
75681;BME280;64294;49.176;16.626;2022-11-20T12:24:38;98823.28;;;0.47;83.08
75681;BME280;64294;49.176;16.626;2022-11-20T12:27:25;98820.56;;;0.67;81.67
75681;BME280;64294;49.176;16.626;2022-11-20T12:30:08;98815.88;;;0.73;81.16
75681;BME280;64294;49.176;16.626;2022-11-20T12:40:58;98820.53;;;0.82;81.08
75681;BME280;64294;49.176;16.626;2022-11-20T12:43:27;98810.69;;;0.60;81.15
75681;BME280;64294;49.176;16.626;2022-11-20T12:57:24;98804.47;;;0.86;82.03
75681;BME280;64294;49.176;16.626;2022-11-20T13:02:27;98799.09;;;0.77;81.74
75681;BME280;64294;49.176;16.626;2022-11-20T13:07:43;98800.94;;;0.85;82.13
75681;BME280;64294;49.176;16.626;2022-11-20T13:10:49;98798.03;;;0.74;82.44
75681;BME280;64294;49.176;16.626;2022-11-20T13:15:58;98806.13;;;0.78;81.23
75681;BME280;64294;49.176;16.626;2022-11-20T13:18:27;98784.34;;;0.65;82.14
75681;BME280;64294;49.176;16.626;2022-11-20T13:20:53;98791.53;;;0.57;81.92
75681;BME280;64294;49.176;16.626;2022-11-20T13:23:26;98794.97;;;0.72;82.00
75681;BME280;64294;49.176;16.626;2022-11-20T13:26:03;98793.59;;;0.62;82.25
75681;BME280;64294;49.176;16.626;2022-11-20T13:28:30;98792.50;;;0.74;82.34
75681;BME280;64294;49.176;16.626;2022-11-20T13:30:57;98786.13;;;0.68;83.02
75681;BME280;64294;49.176;16.626;2022-11-20T13:33:36;98786.34;;;0.65;82.67
75681;BME280;64294;49.176;16.626;2022-11-20T13:36:06;98789.44;;;0.72;82.66
75681;BME280;64294;49.176;16.626;2022-11-20T13:38:47;98787.53;;;0.58;83.15
75681;BME280;64294;49.176;16.626;2022-11-20T13:41:27;98785.75;;;0.75;82.39
75681;BME280;64294;49.176;16.626;2022-11-20T13:46:37;98786.69;;;0.72;83.62
75681;BME280;64294;49.176;16.626;2022-11-20T13:49:52;98785.38;;;0.68;83.66
75681;BME280;64294;49.176;16.626;2022-11-20T14:01:10;98784.41;;;0.71;84.44
75681;BME280;64294;49.176;16.626;2022-11-20T14:03:36;98779.34;;;0.69;84.50
75681;BME280;64294;49.176;16.626;2022-11-20T14:06:05;98782.00;;;0.58;84.01
75681;BME280;64294;49.176;16.626;2022-11-20T14:08:46;98771.88;;;0.55;84.89
75681;BME280;64294;49.176;16.626;2022-11-20T14:11:23;98778.88;;;0.71;84.68
75681;BME280;64294;49.176;16.626;2022-11-20T14:13:59;98772.31;;;0.68;85.14
75681;BME280;64294;49.176;16.626;2022-11-20T14:16:27;98774.19;;;0.56;85.24
75681;BME280;64294;49.176;16.626;2022-11-20T14:18:54;98774.44;;;0.58;85.78
75681;BME280;64294;49.176;16.626;2022-11-20T14:21:28;98764.75;;;0.69;85.38
75681;BME280;64294;49.176;16.626;2022-11-20T14:24:09;98765.13;;;0.56;85.53
75681;BME280;64294;49.176;16.626;2022-11-20T14:26:36;98770.94;;;0.58;85.55
75681;BME280;64294;49.176;16.626;2022-11-20T14:29:02;98769.88;;;0.55;86.18
75681;BME280;64294;49.176;16.626;2022-11-20T14:31:28;98771.44;;;0.77;85.62
75681;BME280;64294;49.176;16.626;2022-11-20T14:33:54;98763.72;;;0.66;85.94
75681;BME280;64294;49.176;16.626;2022-11-20T14:36:22;98768.44;;;0.60;85.75
75681;BME280;64294;49.176;16.626;2022-11-20T14:38:50;98754.13;;;0.62;86.18
75681;BME280;64294;49.176;16.626;2022-11-20T14:41:21;98757.94;;;0.64;86.29